Campbell Foss — WDC7754 — position and weather

sailwx.info

Track history (hours):
 
Tides and Currents Weather Stations Pressure Air Temp Water Temp Dewpoint Dewpoint Depression Visibility Wind Speed Wind Dir Waves Ship Positions

Campbell Foss

Owner: Foss Maritime Co., Seattle, WA. More information available from US FCC via Universal Licensing System and Coast Guard Vessel Documentation Center.

Last reported at 2016-Dec-09 02:27 UTC. Time now 2016-Dec-09 05:56 UTC.
Position N 33°45' W 118°16'.

Length 23 m; draft 16 m.

Type: Tug. MMSI: 367076360.

Date/timePositionNaut miles runAvg speedWind from/ knotsBaromVisibWave heightAir tempDewpointWater temp
2016-Dec-09 02:27N 33°45' W 118°16'0 0.3
2016-Dec-09 01:32N 33°45' W 118°16'0 0.3
2016-Dec-09 00:33N 33°45' W 118°16'2 2.4
2016-Dec-08 23:33N 33°43' W 118°15'3 1.7
2016-Dec-08 21:33N 33°46' W 118°13'0 0.0
2016-Dec-08 20:12N 33°46' W 118°13'1 0.1
2016-Dec-08 08:19N 33°45' W 118°13'  
2016-Dec-05 18:22N 33°46' W 118°13'3 1.4
2016-Dec-05 16:11N 33°45' W 118°17'1 0.8
2016-Dec-05 14:24N 33°43' W 118°16'3 3.8
2016-Dec-05 13:30N 33°45' W 118°12'0 0.5
2016-Dec-05 12:33N 33°45' W 118°13'1 0.6
2016-Dec-05 11:19N 33°46' W 118°13'0 0.0
2016-Dec-05 10:27N 33°46' W 118°13'0 0.0
2016-Dec-05 09:33N 33°46' W 118°13'0 0.0
2016-Dec-05 08:33N 33°46' W 118°13'0 0.0
2016-Dec-05 07:33N 33°46' W 118°13'0 0.5
2016-Dec-05 06:33N 33°46' W 118°13'0 0.3
2016-Dec-05 05:34N 33°46' W 118°13'2 0.5
2016-Dec-05 00:29N 33°46' W 118°16'2 0.7
2016-Dec-04 21:06N 33°45' W 118°13'15 3.3
2016-Dec-04 16:33N 33°54' W 118°27'1 1.0
2016-Dec-04 15:33N 33°53' W 118°28'8 5.8
2016-Dec-04 14:08N 33°45' W 118°27'610.0
2016-Dec-04 13:32N 33°42' W 118°21'8 7.7
2016-Dec-04 12:32N 33°45' W 118°13'1 0.5
2016-Dec-04 11:34N 33°46' W 118°13'0 0.0
2016-Dec-04 10:33N 33°46' W 118°13'0 0.0
2016-Dec-04 09:33N 33°46' W 118°13'0 0.0
2016-Dec-04 08:33N 33°46' W 118°13'0 0.0
2016-Dec-04 07:27N 33°46' W 118°13'0 0.5
2016-Dec-04 06:33N 33°45' W 118°13'2 2.0
2016-Dec-04 05:30N 33°43' W 118°14'3 3.3
2016-Dec-04 04:33N 33°45' W 118°17'2 1.0
2016-Dec-04 02:34N 33°43' W 118°16'2 0.0
2016-Dec-02 12:19N 33°45' W 118°16'0 0.0
2016-Dec-02 11:28N 33°45' W 118°16'1 0.1
2016-Dec-01 23:07N 33°44' W 118°16'1 1.8
2016-Dec-01 22:32N 33°45' W 118°16'1 1.2
2016-Dec-01 21:33N 33°46' W 118°16'3 0.1
2016-Dec-01 01:20N 33°45' W 118°13'1 0.0
2016-Nov-30 02:07N 33°46' W 118°13'1 2.2
2016-Nov-30 01:33N 33°44' W 118°13'1 1.0
2016-Nov-30 00:31N 33°44' W 118°11'3 2.4
2016-Nov-29 23:05N 33°44' W 118°16'1 1.4
2016-Nov-29 22:25N 33°43' W 118°15'9 1.3
2016-Nov-29 15:34N 33°44' W 118°26'9 8.5
2016-Nov-29 14:33N 33°43' W 118°16'0 0.5
2016-Nov-29 13:34N 33°44' W 118°15'0 0.4
2016-Nov-29 12:32N 33°44' W 118°16'  
Track history (hours):
 
Tides and Currents Weather Stations Pressure Air Temp Water Temp Dewpoint Dewpoint Depression Visibility Wind Speed Wind Dir Waves Ship Positions

Campbell Foss

Owner: Foss Maritime Co., Seattle, WA. More information available from US FCC via Universal Licensing System and Coast Guard Vessel Documentation Center.

Last reported at 2016-Dec-09 02:27 UTC. Time now 2016-Dec-09 05:56 UTC.
Position N 33°45' W 118°16'.

Length 23 m; draft 16 m.

Type: Tug. MMSI: 367076360.

Date/timePositionNaut miles runAvg speedWind from/ knotsBaromVisibWave heightAir tempDewpointWater temp
2016-Dec-09 02:27N 33°45' W 118°16'0 0.3
2016-Dec-09 01:32N 33°45' W 118°16'0 0.3
2016-Dec-09 00:33N 33°45' W 118°16'2 2.4
2016-Dec-08 23:33N 33°43' W 118°15'3 1.7
2016-Dec-08 21:33N 33°46' W 118°13'0 0.0
2016-Dec-08 20:12N 33°46' W 118°13'1 0.1
2016-Dec-08 08:19N 33°45' W 118°13'  
2016-Dec-05 18:22N 33°46' W 118°13'3 1.4
2016-Dec-05 16:11N 33°45' W 118°17'1 0.8
2016-Dec-05 14:24N 33°43' W 118°16'3 3.8
2016-Dec-05 13:30N 33°45' W 118°12'0 0.5
2016-Dec-05 12:33N 33°45' W 118°13'1 0.6
2016-Dec-05 11:19N 33°46' W 118°13'0 0.0
2016-Dec-05 10:27N 33°46' W 118°13'0 0.0
2016-Dec-05 09:33N 33°46' W 118°13'0 0.0
2016-Dec-05 08:33N 33°46' W 118°13'0 0.0
2016-Dec-05 07:33N 33°46' W 118°13'0 0.5
2016-Dec-05 06:33N 33°46' W 118°13'0 0.3
2016-Dec-05 05:34N 33°46' W 118°13'2 0.5
2016-Dec-05 00:29N 33°46' W 118°16'2 0.7
2016-Dec-04 21:06N 33°45' W 118°13'15 3.3
2016-Dec-04 16:33N 33°54' W 118°27'1 1.0
2016-Dec-04 15:33N 33°53' W 118°28'8 5.8
2016-Dec-04 14:08N 33°45' W 118°27'610.0
2016-Dec-04 13:32N 33°42' W 118°21'8 7.7
2016-Dec-04 12:32N 33°45' W 118°13'1 0.5
2016-Dec-04 11:34N 33°46' W 118°13'0 0.0
2016-Dec-04 10:33N 33°46' W 118°13'0 0.0
2016-Dec-04 09:33N 33°46' W 118°13'0 0.0
2016-Dec-04 08:33N 33°46' W 118°13'0 0.0
2016-Dec-04 07:27N 33°46' W 118°13'0 0.5
2016-Dec-04 06:33N 33°45' W 118°13'2 2.0
2016-Dec-04 05:30N 33°43' W 118°14'3 3.3
2016-Dec-04 04:33N 33°45' W 118°17'2 1.0
2016-Dec-04 02:34N 33°43' W 118°16'2 0.0
2016-Dec-02 12:19N 33°45' W 118°16'0 0.0
2016-Dec-02 11:28N 33°45' W 118°16'1 0.1
2016-Dec-01 23:07N 33°44' W 118°16'1 1.8
2016-Dec-01 22:32N 33°45' W 118°16'1 1.2
2016-Dec-01 21:33N 33°46' W 118°16'3 0.1
2016-Dec-01 01:20N 33°45' W 118°13'1 0.0
2016-Nov-30 02:07N 33°46' W 118°13'1 2.2
2016-Nov-30 01:33N 33°44' W 118°13'1 1.0
2016-Nov-30 00:31N 33°44' W 118°11'3 2.4
2016-Nov-29 23:05N 33°44' W 118°16'1 1.4
2016-Nov-29 22:25N 33°43' W 118°15'9 1.3
2016-Nov-29 15:34N 33°44' W 118°26'9 8.5
2016-Nov-29 14:33N 33°43' W 118°16'0 0.5
2016-Nov-29 13:34N 33°44' W 118°15'0 0.4
2016-Nov-29 12:32N 33°44' W 118°16'  

Dump ship's entire track history